createdAt,value
2018-04-09T00:01:54.590Z,40.90
2018-04-09T00:04:22.036Z,40.70
2018-04-09T00:06:49.498Z,40.50
2018-04-09T00:09:16.944Z,40.70
2018-04-09T00:11:44.839Z,40.40
2018-04-09T00:14:12.300Z,40.50
2018-04-09T00:16:40.516Z,41.00
2018-04-09T00:19:07.968Z,41.00
2018-04-09T00:21:35.437Z,41.20
2018-04-09T00:24:02.886Z,41.10
2018-04-09T00:26:30.343Z,40.70
2018-04-09T00:28:57.796Z,40.30
2018-04-09T00:31:25.258Z,39.90
2018-04-09T00:33:52.719Z,39.50
2018-04-09T00:36:20.204Z,39.60
2018-04-09T00:38:47.652Z,39.40
2018-04-09T00:41:15.099Z,39.50
2018-04-09T00:43:42.562Z,39.10
2018-04-09T00:46:10.003Z,39.00
2018-04-09T00:48:37.471Z,38.90
2018-04-09T00:51:04.919Z,39.30
2018-04-09T00:53:44.247Z,39.10
2018-04-09T00:56:11.679Z,39.10
2018-04-09T00:58:39.131Z,39.10
2018-04-09T01:01:06.608Z,39.20
2018-04-09T01:03:34.068Z,39.40
2018-04-09T01:06:01.531Z,39.20
2018-04-09T01:08:28.992Z,39.10
2018-04-09T01:10:56.460Z,39.10
2018-04-09T01:13:23.925Z,38.70
2018-04-09T01:15:52.143Z,38.60
2018-04-09T01:18:19.590Z,38.60
2018-04-09T01:20:47.057Z,38.80
2018-04-09T01:23:14.516Z,38.40
2018-04-09T01:25:41.990Z,38.60
2018-04-09T01:28:09.455Z,38.40
2018-04-09T01:30:36.899Z,38.60
2018-04-09T01:33:04.364Z,38.60
2018-04-09T01:35:31.831Z,38.20
2018-04-09T01:37:59.274Z,38.10
2018-04-09T01:40:26.751Z,38.70
2018-04-09T01:42:54.995Z,39.20
2018-04-09T01:45:22.463Z,39.20
2018-04-09T01:47:49.915Z,39.60
2018-04-09T01:50:17.393Z,39.70
2018-04-09T01:52:44.855Z,40.10
2018-04-09T01:55:13.086Z,41.00
2018-04-09T01:57:40.540Z,41.00
2018-04-09T02:00:07.995Z,41.10
2018-04-09T02:02:35.454Z,41.30
2018-04-09T02:05:02.914Z,41.40
2018-04-09T02:07:30.355Z,42.50
2018-04-09T02:09:57.812Z,42.70
2018-04-09T02:12:25.286Z,42.50
2018-04-09T02:14:53.498Z,41.90
2018-04-09T02:17:21.723Z,41.40
2018-04-09T02:19:49.191Z,41.40
2018-04-09T02:22:16.632Z,41.20
2018-04-09T02:24:44.142Z,40.80
2018-04-09T02:27:11.566Z,40.60
2018-04-09T02:29:39.019Z,40.40
2018-04-09T02:32:06.488Z,40.50
2018-04-09T02:34:33.942Z,40.50
2018-04-09T02:37:01.389Z,39.90
2018-04-09T02:39:28.856Z,39.20
2018-04-09T02:41:56.300Z,39.40
2018-04-09T02:44:23.784Z,38.90
2018-04-09T02:46:52.015Z,38.20
2018-04-09T02:49:19.448Z,38.20
2018-04-09T02:51:46.909Z,38.30
2018-04-09T02:54:14.358Z,38.50
2018-04-09T02:56:41.812Z,38.60
2018-04-09T02:59:09.263Z,38.70
2018-04-09T03:01:36.734Z,38.90
2018-04-09T03:04:04.201Z,38.30
2018-04-09T03:06:31.647Z,38.10
2018-04-09T03:08:59.166Z,38.20
2018-04-09T03:11:27.396Z,38.00
2018-04-09T03:13:54.842Z,38.00
2018-04-09T03:16:22.315Z,38.10
2018-04-09T03:18:49.770Z,38.40
2018-04-09T03:21:17.278Z,38.50
2018-04-09T03:23:45.464Z,38.00
2018-04-09T03:26:12.919Z,37.90
2018-04-09T03:28:40.388Z,38.00
2018-04-09T03:31:07.855Z,38.10
2018-04-09T03:33:35.299Z,38.10
2018-04-09T03:36:02.763Z,38.20
2018-04-09T03:38:30.216Z,38.70
2018-04-09T03:40:57.683Z,39.10
2018-04-09T03:43:25.161Z,39.20
2018-04-09T03:45:52.611Z,39.40
2018-04-09T03:48:20.060Z,39.60
2018-04-09T03:50:47.527Z,40.10
2018-04-09T03:53:14.971Z,40.70
2018-04-09T03:55:42.435Z,41.00
2018-04-09T03:58:09.885Z,39.90
2018-04-09T04:00:37.355Z,39.60
2018-04-09T04:03:04.808Z,38.70
2018-04-09T04:05:33.024Z,38.00
2018-04-09T04:08:00.492Z,38.00
2018-04-09T04:10:27.967Z,38.00
2018-04-09T04:12:55.403Z,37.70
2018-04-09T04:15:34.844Z,37.50
2018-04-09T04:21:15.768Z,36.80
2018-04-09T04:23:43.216Z,37.10
2018-04-09T04:26:10.664Z,37.20
2018-04-09T04:28:38.930Z,37.30
2018-04-09T04:31:06.482Z,36.70
2018-04-09T04:33:33.927Z,36.50
2018-04-09T04:36:01.419Z,36.60
2018-04-09T04:38:28.863Z,37.50
2018-04-09T04:40:56.317Z,37.00
2018-04-09T04:43:23.786Z,36.60
2018-04-09T04:45:51.241Z,37.00
2018-04-09T04:48:18.690Z,37.60
2018-04-09T04:50:46.158Z,38.00
2018-04-09T04:53:13.603Z,39.00
2018-04-09T04:55:41.066Z,40.00
2018-04-09T04:58:08.509Z,40.10
2018-04-09T05:00:35.981Z,40.40
2018-04-09T05:03:03.436Z,40.20
2018-04-09T05:05:30.878Z,40.50
2018-04-09T05:07:58.355Z,40.50
2018-04-09T05:10:25.795Z,40.90
2018-04-09T05:12:53.266Z,40.30
2018-04-09T05:15:20.706Z,40.50
2018-04-09T05:17:48.166Z,40.70
2018-04-09T05:20:15.618Z,39.60
2018-04-09T05:22:43.075Z,40.00
2018-04-09T05:25:10.551Z,40.60
2018-04-09T05:27:38.767Z,41.80
2018-04-09T05:30:06.224Z,42.20
2018-04-09T05:32:33.775Z,41.90
2018-04-09T05:35:01.213Z,40.70
2018-04-09T05:37:28.663Z,41.70
2018-04-09T05:39:56.907Z,40.80
2018-04-09T05:42:24.343Z,40.90
2018-04-09T05:44:51.791Z,39.20
2018-04-09T05:47:19.261Z,38.60
2018-04-09T05:49:46.707Z,39.40
2018-04-09T05:52:14.186Z,40.20
2018-04-09T05:54:41.655Z,40.70
2018-04-09T05:57:09.886Z,41.20
2018-04-09T05:59:37.360Z,41.10
2018-04-09T06:02:04.814Z,42.50
2018-04-09T06:04:32.277Z,43.30
2018-04-09T06:06:59.730Z,43.60
2018-04-09T06:09:27.198Z,44.30
2018-04-09T06:11:54.658Z,45.70
2018-04-09T06:14:22.122Z,45.90
2018-04-09T06:16:50.350Z,46.00
2018-04-09T06:19:17.830Z,46.00
2018-04-09T06:21:45.281Z,46.60
2018-04-09T06:24:12.747Z,47.00
2018-04-09T06:26:40.210Z,46.30
2018-04-09T06:29:07.675Z,46.50
2018-04-09T06:31:35.892Z,46.30
2018-04-09T06:34:03.372Z,46.30
2018-04-09T06:36:30.846Z,44.70
2018-04-09T06:38:58.297Z,44.80
2018-04-09T06:41:25.751Z,45.20
2018-04-09T06:43:53.205Z,45.60
2018-04-09T06:46:20.663Z,45.90
2018-04-09T06:48:48.143Z,46.40
2018-04-09T06:51:16.392Z,46.90
2018-04-09T06:53:43.870Z,46.90
2018-04-09T06:56:12.105Z,44.70
2018-04-09T06:58:39.576Z,44.70
2018-04-09T07:01:07.027Z,44.50
2018-04-09T07:03:34.495Z,45.20
2018-04-09T07:06:01.945Z,46.00
2018-04-09T07:08:29.400Z,46.60
2018-04-09T07:10:56.866Z,47.00
2018-04-09T07:13:24.331Z,47.70
2018-04-09T07:15:52.551Z,48.60
2018-04-09T07:18:20.001Z,48.60
2018-04-09T07:20:47.462Z,48.90
2018-04-09T07:23:14.923Z,49.20
2018-04-09T07:25:42.358Z,49.30
2018-04-09T07:28:09.817Z,49.10
2018-04-09T07:30:37.309Z,49.50
2018-04-09T07:33:04.758Z,50.10
2018-04-09T07:35:32.226Z,50.70
2018-04-09T07:37:59.690Z,50.10
2018-04-09T07:40:27.149Z,48.10
2018-04-09T07:42:54.593Z,47.70
2018-04-09T07:45:22.085Z,46.00
2018-04-09T07:47:50.293Z,42.90
2018-04-09T07:50:17.748Z,42.90
2018-04-09T07:52:45.206Z,41.40
2018-04-09T07:55:12.648Z,42.40
2018-04-09T07:57:40.114Z,43.60
2018-04-09T08:00:07.583Z,43.50
2018-04-09T08:02:35.047Z,43.80
2018-04-09T08:05:02.493Z,43.20
2018-04-09T08:07:29.964Z,42.80
2018-04-09T08:09:57.430Z,42.50
2018-04-09T08:12:24.878Z,41.90
2018-04-09T08:14:52.340Z,40.60
2018-04-09T08:17:19.798Z,38.90
2018-04-09T08:19:47.255Z,39.20
2018-04-09T08:22:14.731Z,38.30
2018-04-09T08:24:42.964Z,35.80
2018-04-09T08:27:10.406Z,35.80
2018-04-09T08:29:37.895Z,36.00
2018-04-09T08:32:05.344Z,37.00
2018-04-09T08:34:32.813Z,36.90
2018-04-09T08:37:00.256Z,37.10
2018-04-09T08:39:27.715Z,37.90
2018-04-09T08:41:55.172Z,38.70
2018-04-09T08:44:22.619Z,39.50
2018-04-09T08:46:50.074Z,39.70
2018-04-09T08:49:17.535Z,39.60
2018-04-09T08:51:44.990Z,39.70
2018-04-09T08:54:12.452Z,39.50
2018-04-09T08:56:39.902Z,40.90
2018-04-09T08:59:07.354Z,41.20
2018-04-09T09:01:34.857Z,41.60
2018-04-09T09:04:02.263Z,42.10
2018-04-09T09:06:29.726Z,42.10
2018-04-09T09:08:57.166Z,41.60
2018-04-09T09:11:24.625Z,41.20
2018-04-09T09:13:52.078Z,40.60
2018-04-09T09:16:19.516Z,39.60
2018-04-09T09:18:46.970Z,38.00
2018-04-09T09:21:14.505Z,36.70
2018-04-09T09:23:41.909Z,40.50
2018-04-09T09:26:09.363Z,43.00
2018-04-09T09:28:36.825Z,44.30
2018-04-09T09:31:04.267Z,45.10
2018-04-09T09:33:31.736Z,45.10
2018-04-09T09:35:59.199Z,44.40
2018-04-09T09:38:28.570Z,44.00
2018-04-09T09:40:56.022Z,44.00
2018-04-09T09:43:23.498Z,44.00
2018-04-09T09:45:50.934Z,44.10
2018-04-09T09:48:18.398Z,44.20
2018-04-09T09:50:45.854Z,43.50
2018-04-09T09:53:13.302Z,42.40
2018-04-09T09:55:40.764Z,42.90
2018-04-09T09:58:08.210Z,43.00
2018-04-09T10:00:41.510Z,43.30
2018-04-09T10:03:08.974Z,43.60
2018-04-09T10:05:36.428Z,42.80
2018-04-09T10:08:03.894Z,42.20
2018-04-09T10:10:31.339Z,41.40
2018-04-09T10:12:58.790Z,41.60
2018-04-09T10:15:26.250Z,41.50
2018-04-09T10:17:53.719Z,41.60
2018-04-09T10:20:21.229Z,41.20
2018-04-09T10:22:48.632Z,41.10
2018-04-09T10:25:16.170Z,39.70
2018-04-09T10:27:43.609Z,39.70
2018-04-09T10:30:11.074Z,39.10
2018-04-09T10:32:38.540Z,39.00
2018-04-09T10:35:05.984Z,39.70
2018-04-09T10:37:33.450Z,38.40
2018-04-09T10:40:00.902Z,37.80
2018-04-09T10:42:28.362Z,38.10
2018-04-09T10:44:55.822Z,38.30
2018-04-09T10:47:23.291Z,38.80
2018-04-09T10:49:50.743Z,38.40
2018-04-09T10:52:18.195Z,37.20
2018-04-09T10:54:45.656Z,36.80
2018-04-09T10:57:13.111Z,36.10
2018-04-09T10:59:40.584Z,35.80
2018-04-09T11:02:08.030Z,35.30
2018-04-09T11:04:35.503Z,35.30
2018-04-09T11:07:03.726Z,39.20
2018-04-09T11:09:31.182Z,39.30
2018-04-09T11:11:58.668Z,40.10
2018-04-09T11:14:26.102Z,41.00
2018-04-09T11:16:53.545Z,40.90
2018-04-09T11:19:21.014Z,40.60
2018-04-09T11:21:48.468Z,39.70
2018-04-09T11:24:15.915Z,40.20
2018-04-09T11:26:45.324Z,41.10
2018-04-09T11:29:12.766Z,40.90
2018-04-09T11:31:40.238Z,40.50
2018-04-09T11:34:07.723Z,40.30
2018-04-09T11:36:35.194Z,39.80
2018-04-09T11:39:03.528Z,40.30
2018-04-09T11:41:30.969Z,40.30
2018-04-09T11:43:58.430Z,40.30
2018-04-09T11:46:25.869Z,40.30
2018-04-09T11:48:53.323Z,40.40
2018-04-09T11:51:20.772Z,41.00
2018-04-09T11:53:48.248Z,40.40
2018-04-09T11:56:15.700Z,39.80
2018-04-09T11:58:43.156Z,40.20
2018-04-09T12:01:10.619Z,40.00
2018-04-09T12:03:38.061Z,39.90
2018-04-09T12:06:05.517Z,39.70
2018-04-09T12:08:32.988Z,38.80
2018-04-09T12:11:00.427Z,39.20
2018-04-09T12:13:27.896Z,38.50
2018-04-09T12:15:55.370Z,37.30
2018-04-09T12:18:22.825Z,37.30
2018-04-09T12:20:50.275Z,37.60
2018-04-09T12:23:17.741Z,36.90
2018-04-09T12:25:45.196Z,37.50
2018-04-09T12:28:12.654Z,36.20
2018-04-09T12:30:40.124Z,36.70
2018-04-09T12:33:07.560Z,36.90
2018-04-09T12:35:35.046Z,37.10
2018-04-09T12:38:03.264Z,35.00
2018-04-09T12:40:30.736Z,35.00
2018-04-09T12:42:58.194Z,34.80
2018-04-09T12:45:25.643Z,35.80
2018-04-09T12:47:53.116Z,36.20
2018-04-09T12:50:20.559Z,36.30
2018-04-09T12:52:48.048Z,37.30
2018-04-09T12:55:15.474Z,37.60
2018-04-09T12:57:42.938Z,37.90
2018-04-09T13:00:10.378Z,38.20
2018-04-09T13:02:37.820Z,38.60
2018-04-09T13:05:05.304Z,37.60
2018-04-09T13:07:32.748Z,38.20
2018-04-09T13:10:00.249Z,38.10
2018-04-09T13:12:28.511Z,38.20
2018-04-09T13:14:55.947Z,38.20
2018-04-09T13:17:23.396Z,38.40
2018-04-09T13:19:50.840Z,39.10
2018-04-09T13:22:18.298Z,39.60
2018-04-09T13:24:45.764Z,39.80
2018-04-09T13:27:13.232Z,39.50
2018-04-09T13:29:40.670Z,39.70
2018-04-09T13:32:08.112Z,40.00
2018-04-09T13:34:35.593Z,40.00
2018-04-09T13:37:03.037Z,39.70
2018-04-09T13:39:30.484Z,39.30
2018-04-09T13:41:57.940Z,39.80
2018-04-09T13:44:25.384Z,39.70
2018-04-09T13:46:52.847Z,39.50
2018-04-09T13:49:20.295Z,38.80
2018-04-09T13:51:47.764Z,38.70
2018-04-09T13:54:15.204Z,39.00
2018-04-09T13:56:42.646Z,38.60
2018-04-09T13:59:10.112Z,38.50
2018-04-09T14:01:37.555Z,38.50
2018-04-09T14:04:05.020Z,38.20
2018-04-09T14:06:32.463Z,39.10
2018-04-09T14:08:59.914Z,37.60
2018-04-09T14:11:27.591Z,37.50
2018-04-09T14:13:55.045Z,37.70
2018-04-09T14:16:22.842Z,37.10
2018-04-09T14:18:50.286Z,36.90
2018-04-09T14:21:17.772Z,36.30
2018-04-09T14:23:45.212Z,35.00
2018-04-09T14:26:12.668Z,34.90
2018-04-09T14:28:40.114Z,34.50
2018-04-09T14:31:07.593Z,34.30
2018-04-09T14:33:35.037Z,34.70
2018-04-09T14:36:03.308Z,33.60
2018-04-09T14:38:30.751Z,33.60
2018-04-09T14:40:58.195Z,33.30
2018-04-09T14:43:25.646Z,32.60
2018-04-09T14:45:53.101Z,31.20
2018-04-09T14:48:20.564Z,30.00
2018-04-09T14:50:49.032Z,29.00
2018-04-09T14:53:16.489Z,29.00
2018-04-09T14:55:43.953Z,28.20
2018-04-09T14:58:11.397Z,25.90
2018-04-09T15:00:38.858Z,25.90
2018-04-09T15:03:06.299Z,25.90
2018-04-09T15:05:33.770Z,25.80
2018-04-09T15:08:01.225Z,25.20
2018-04-09T15:10:28.691Z,25.00
2018-04-09T15:12:56.145Z,24.40
2018-04-09T15:15:23.605Z,23.60
2018-04-09T15:17:51.054Z,23.30
2018-04-09T15:20:18.520Z,22.90
2018-04-09T15:22:45.979Z,23.00
2018-04-09T15:25:13.425Z,23.70
2018-04-09T15:27:40.887Z,24.60
2018-04-09T15:30:08.334Z,25.50
2018-04-09T15:32:35.799Z,26.70
2018-04-09T15:35:03.259Z,28.00
2018-04-09T15:37:30.725Z,29.30
2018-04-09T15:39:58.213Z,29.90
2018-04-09T15:42:25.620Z,29.10
2018-04-09T15:44:53.851Z,30.20
2018-04-09T15:47:21.304Z,30.20
2018-04-09T15:49:48.815Z,31.10
2018-04-09T15:52:16.260Z,31.40
2018-04-09T15:54:43.751Z,31.60
2018-04-09T15:57:11.177Z,31.60
2018-04-09T15:59:38.661Z,31.90
2018-04-09T16:02:06.871Z,31.20
2018-04-09T16:04:34.324Z,31.10
2018-04-09T16:07:01.809Z,30.40
2018-04-09T16:09:29.256Z,29.80
2018-04-09T16:11:56.709Z,29.80
2018-04-09T16:14:24.159Z,30.40
2018-04-09T16:16:51.630Z,30.20
2018-04-09T16:19:19.072Z,30.60
2018-04-09T16:21:47.303Z,34.00
2018-04-09T16:24:15.520Z,36.10
2018-04-09T16:26:42.976Z,36.00
2018-04-09T16:29:10.442Z,37.50
2018-04-09T16:31:37.890Z,38.70
2018-04-09T16:34:05.361Z,39.30
2018-04-09T16:36:32.805Z,40.00
2018-04-09T16:39:00.267Z,40.60
2018-04-09T16:41:27.740Z,41.20
2018-04-09T16:43:55.181Z,42.00
2018-04-09T16:46:22.637Z,42.90
2018-04-09T16:48:50.102Z,43.50
2018-04-09T16:51:17.548Z,43.80
2018-04-09T16:53:45.003Z,44.60
2018-04-09T16:56:12.544Z,45.30
2018-04-09T16:58:39.989Z,45.90
2018-04-09T17:01:07.433Z,46.20
2018-04-09T17:03:34.897Z,46.80
2018-04-09T17:06:02.359Z,47.00
2018-04-09T17:08:29.821Z,47.80
2018-04-09T17:10:57.276Z,47.50
2018-04-09T17:13:24.721Z,47.40
2018-04-09T17:15:52.184Z,48.40
2018-04-09T17:18:19.676Z,48.50
2018-04-09T17:20:47.124Z,48.40
2018-04-09T17:23:14.575Z,48.30
2018-04-09T17:25:42.031Z,48.40
2018-04-09T17:28:09.502Z,48.70
2018-04-09T17:30:37.056Z,49.40
2018-04-09T17:33:04.499Z,50.00
2018-04-09T17:35:31.947Z,50.20
2018-04-09T17:37:59.429Z,50.30
2018-04-09T17:40:26.869Z,50.40
2018-04-09T17:42:54.329Z,50.60
2018-04-09T17:45:21.805Z,51.00
2018-04-09T17:47:49.329Z,51.50
2018-04-09T17:50:16.782Z,51.90
2018-04-09T17:52:44.248Z,52.20
2018-04-09T17:55:11.706Z,52.40
2018-04-09T17:57:39.153Z,52.60
2018-04-09T18:00:06.612Z,52.80
2018-04-09T18:02:34.064Z,52.90
2018-04-09T18:05:01.534Z,53.00
2018-04-09T18:07:28.994Z,53.30
2018-04-09T18:09:56.448Z,53.50
2018-04-09T18:12:23.901Z,53.90
2018-04-09T18:14:51.363Z,54.20
2018-04-09T18:17:18.820Z,54.50
2018-04-09T18:19:46.265Z,54.60
2018-04-09T18:22:13.737Z,54.70
2018-04-09T18:24:41.172Z,54.90
2018-04-09T18:27:08.654Z,55.10
2018-04-09T18:29:36.142Z,55.50
2018-04-09T18:32:04.385Z,55.50
2018-04-09T18:37:22.430Z,55.40
2018-04-09T18:39:49.881Z,55.50
2018-04-09T18:42:17.336Z,55.50
2018-04-09T18:44:44.780Z,55.50
2018-04-09T18:47:12.244Z,55.80
2018-04-09T18:49:39.705Z,56.00
2018-04-09T18:52:07.167Z,56.80
2018-04-09T18:54:34.629Z,56.30
2018-04-09T18:57:02.080Z,56.30
2018-04-09T18:59:29.528Z,57.00
2018-04-09T19:01:56.985Z,57.40
2018-04-09T19:04:24.436Z,57.60
2018-04-09T19:06:51.892Z,58.10
2018-04-09T19:09:19.352Z,58.40
2018-04-09T19:11:46.808Z,58.60
2018-04-09T19:14:14.269Z,58.90
2018-04-09T19:16:41.749Z,59.00
2018-04-09T19:19:09.992Z,59.40
2018-04-09T19:21:37.448Z,59.40
2018-04-09T19:24:04.935Z,59.60
2018-04-09T19:26:33.145Z,59.90
2018-04-09T19:29:00.640Z,59.90
2018-04-09T19:31:28.610Z,59.90
2018-04-09T19:33:56.064Z,59.70
2018-04-09T19:36:29.260Z,59.60
2018-04-09T19:39:02.384Z,60.00
2018-04-09T19:41:29.852Z,59.80
2018-04-09T19:44:01.256Z,59.90
2018-04-09T19:46:28.708Z,60.00
2018-04-09T19:48:56.335Z,60.30
2018-04-09T19:51:23.857Z,60.60
2018-04-09T19:53:52.072Z,61.50
2018-04-09T19:56:20.298Z,62.10
2018-04-09T19:58:48.508Z,62.10
2018-04-09T20:01:15.968Z,62.10
2018-04-09T20:03:43.483Z,62.70
2018-04-09T20:06:10.992Z,63.20
2018-04-09T20:08:38.445Z,63.10
2018-04-09T20:11:05.888Z,63.40
2018-04-09T20:13:33.386Z,63.50
2018-04-09T20:16:01.632Z,63.20
2018-04-09T20:18:29.092Z,63.20
2018-04-09T20:20:56.535Z,63.10
2018-04-09T20:23:24.074Z,63.30
2018-04-09T20:25:51.532Z,63.30
2018-04-09T20:28:18.976Z,63.30
2018-04-09T20:30:46.498Z,63.20
2018-04-09T20:33:14.444Z,63.70
2018-04-09T20:35:41.990Z,64.00
2018-04-09T20:38:09.456Z,64.20
2018-04-09T20:40:36.918Z,64.40
2018-04-09T20:43:04.370Z,64.80
2018-04-09T20:45:31.833Z,65.10
2018-04-09T20:47:59.290Z,65.40
2018-04-09T20:50:26.758Z,65.50
2018-04-09T20:52:54.199Z,65.70
2018-04-09T20:55:21.687Z,66.10
2018-04-09T20:57:49.212Z,66.20
2018-04-09T21:00:16.684Z,66.60
2018-04-09T21:02:44.152Z,67.00
2018-04-09T21:05:11.597Z,67.40
2018-04-09T21:07:39.072Z,67.70
2018-04-09T21:10:07.336Z,68.30
2018-04-09T21:12:34.785Z,68.30
2018-04-09T21:15:02.243Z,68.20
2018-04-09T21:17:29.697Z,68.50
2018-04-09T21:19:57.164Z,68.40
2018-04-09T21:22:24.596Z,68.80
2018-04-09T21:24:52.055Z,69.00
2018-04-09T21:27:19.524Z,69.40
2018-04-09T21:29:46.968Z,69.60
2018-04-09T21:32:14.411Z,69.90
2018-04-09T21:34:41.874Z,69.70
2018-04-09T21:37:09.328Z,69.70
2018-04-09T21:39:36.780Z,69.90
2018-04-09T21:42:04.226Z,70.00
2018-04-09T21:44:31.679Z,70.30
2018-04-09T21:46:59.212Z,70.60
2018-04-09T21:49:26.659Z,71.10
2018-04-09T21:51:54.104Z,71.40
2018-04-09T21:54:22.325Z,71.60
2018-04-09T21:56:49.785Z,71.60
2018-04-09T21:59:17.237Z,71.80
2018-04-09T22:01:44.719Z,71.90
2018-04-09T22:04:12.166Z,72.20
2018-04-09T22:06:39.623Z,72.40
2018-04-09T22:09:07.136Z,72.40
2018-04-09T22:11:34.540Z,72.40
2018-04-09T22:14:01.984Z,72.60
2018-04-09T22:16:29.437Z,72.90
2018-04-09T22:18:56.886Z,72.80
2018-04-09T22:21:24.349Z,73.00
2018-04-09T22:23:51.800Z,73.50
2018-04-09T22:26:19.264Z,74.00
2018-04-09T22:28:46.716Z,74.30
2018-04-09T22:31:14.166Z,74.50
2018-04-09T22:33:41.617Z,74.90
2018-04-09T22:36:09.116Z,75.20
2018-04-09T22:38:37.330Z,75.20
2018-04-09T22:41:04.793Z,75.30
2018-04-09T22:43:32.262Z,75.20
2018-04-09T22:45:59.752Z,75.50
2018-04-09T22:48:27.165Z,75.70
2018-04-09T22:50:54.616Z,75.60
2018-04-09T22:53:22.101Z,75.60
2018-04-09T22:55:49.536Z,75.90
2018-04-09T22:58:16.983Z,75.80
2018-04-09T23:00:44.436Z,75.90
2018-04-09T23:03:11.890Z,76.20
2018-04-09T23:05:39.349Z,76.40
2018-04-09T23:08:06.798Z,76.40
2018-04-09T23:10:34.254Z,76.50
2018-04-09T23:13:01.697Z,76.80
2018-04-09T23:15:29.163Z,77.30
2018-04-09T23:17:56.599Z,77.40
2018-04-09T23:20:24.832Z,78.20
2018-04-09T23:22:52.292Z,78.10
2018-04-09T23:25:19.742Z,78.70
2018-04-09T23:27:47.193Z,79.20
2018-04-09T23:30:14.639Z,79.40
2018-04-09T23:32:42.095Z,79.80
2018-04-09T23:35:09.538Z,79.90
2018-04-09T23:37:36.997Z,80.10
2018-04-09T23:40:04.441Z,80.20
2018-04-09T23:42:31.893Z,80.40
2018-04-09T23:44:59.340Z,80.50
2018-04-09T23:47:26.783Z,80.40
2018-04-09T23:49:54.224Z,80.10
2018-04-09T23:52:22.440Z,79.90
2018-04-09T23:54:49.889Z,79.80
2018-04-09T23:57:17.364Z,79.70
2018-04-09T23:59:44.825Z,79.50
